Elba, Ohio
Current Conditions -  °F | °C
As of 1:53 PM on Thursday 30 Oct 2014 (Local Time) from KPKB Reporting Station
Overcast Overcast  
Wind Chill: 50°   Ceiling: 4500
Heat Index: 50°   Visibility: 10mi
Dew Point: 35°   Wind: 7mph
Humidity: 57%   Direction: 290°WNW
Pressure: 30.13"   Gusts: NA
Location:  39.61°N, 81.4416°W
Report Text: KPKB 301753Z 29006KT 10SM FEW036 OVC045 10/02 A3013 RMK AO2 SLP206 T01000017 10100 20033 58013
Loading
Personal Weather Stations






























Interactive Weather Map
Tropical Storm Tracking
New forecast layout! Learn more

10-Day Weather Forecast

Advertisements
Track Severe Weather on mobile